createdAt,value
2023-02-16T00:00:35.628Z,0.40
2023-02-16T00:03:07.377Z,0.40
2023-02-16T00:05:37.488Z,0.40
2023-02-16T00:08:05.922Z,0.40
2023-02-16T00:10:35.871Z,0.30
2023-02-16T00:13:42.388Z,0.30
2023-02-16T00:16:14.760Z,0.30
2023-02-16T00:18:42.766Z,0.40
2023-02-16T00:21:11.108Z,0.40
2023-02-16T00:23:43.266Z,0.30
2023-02-16T00:26:16.841Z,0.30
2023-02-16T00:28:51.421Z,0.30
2023-02-16T00:31:21.560Z,0.30
2023-02-16T00:33:51.482Z,0.30
2023-02-16T00:36:19.740Z,0.30
2023-02-16T00:38:47.576Z,0.50
2023-02-16T00:41:33.746Z,0.40
2023-02-16T00:44:03.355Z,0.40
2023-02-16T00:46:34.145Z,0.30
2023-02-16T00:49:04.072Z,0.50
2023-02-16T00:51:32.487Z,0.40
2023-02-16T00:54:00.610Z,0.40
2023-02-16T00:56:34.250Z,0.40
2023-02-16T00:59:05.463Z,0.40
2023-02-16T01:01:36.845Z,0.40
2023-02-16T01:04:08.521Z,0.50
2023-02-16T01:06:54.209Z,0.50
2023-02-16T01:09:40.370Z,0.33
2023-02-16T01:12:15.461Z,0.40
2023-02-16T01:14:55.518Z,0.50
2023-02-16T01:17:26.359Z,0.40
2023-02-16T01:19:54.419Z,0.30
2023-02-16T01:22:33.382Z,0.50
2023-02-16T01:25:01.339Z,0.40
2023-02-16T01:27:31.161Z,0.33
2023-02-16T01:30:00.698Z,0.40
2023-02-16T01:32:28.684Z,0.37
2023-02-16T01:34:57.800Z,0.30
2023-02-16T01:37:25.936Z,0.40
2023-02-16T01:39:54.004Z,0.40
2023-02-16T01:42:35.690Z,0.50
2023-02-16T01:45:12.543Z,0.40
2023-02-16T01:47:48.546Z,0.30
2023-02-16T01:50:24.585Z,0.30
2023-02-16T01:52:57.960Z,0.40
2023-02-16T01:55:32.367Z,0.40
2023-02-16T01:58:06.249Z,0.30
2023-02-16T02:01:07.840Z,0.40
2023-02-16T02:03:56.055Z,0.37
2023-02-16T02:06:28.966Z,0.40
2023-02-16T02:09:01.740Z,0.40
2023-02-16T02:11:35.522Z,0.43
2023-02-16T02:14:08.824Z,0.40
2023-02-16T02:16:36.981Z,0.40
2023-02-16T02:19:06.857Z,0.33
2023-02-16T02:22:21.056Z,0.40
2023-02-16T02:25:22.849Z,0.40
2023-02-16T02:27:58.150Z,0.30
2023-02-16T02:30:37.636Z,0.30
2023-02-16T02:33:19.863Z,0.30
2023-02-16T02:35:56.780Z,0.43
2023-02-16T02:38:34.711Z,0.40
2023-02-16T02:41:10.154Z,0.40
2023-02-16T02:43:45.371Z,0.30
2023-02-16T02:46:20.100Z,0.40
2023-02-16T02:48:49.042Z,0.30
2023-02-16T02:51:33.846Z,0.40
2023-02-16T02:54:24.974Z,0.30
2023-02-16T02:57:18.061Z,0.40
2023-02-16T03:00:10.308Z,0.30
2023-02-16T03:02:45.039Z,0.37
2023-02-16T03:05:21.964Z,0.40
2023-02-16T03:07:56.526Z,0.43
2023-02-16T03:10:53.748Z,0.40
2023-02-16T03:13:24.582Z,0.30
2023-02-16T03:15:57.224Z,0.30
2023-02-16T03:18:46.091Z,0.30
2023-02-16T03:21:39.720Z,0.37
2023-02-16T03:24:30.880Z,0.37
2023-02-16T03:27:18.336Z,0.30
2023-02-16T03:29:51.091Z,0.37
2023-02-16T03:32:22.326Z,0.40
2023-02-16T03:34:51.171Z,0.20
2023-02-16T03:37:19.446Z,0.30
2023-02-16T03:40:13.687Z,0.30
2023-02-16T03:42:41.652Z,0.30
2023-02-16T03:45:10.250Z,0.33
2023-02-16T03:47:40.680Z,0.30
2023-02-16T03:50:09.773Z,0.50
2023-02-16T03:52:37.809Z,0.33
2023-02-16T03:55:06.255Z,0.40
2023-02-16T03:57:34.501Z,0.40
2023-02-16T04:00:05.827Z,0.50
2023-02-16T04:02:33.886Z,0.40
2023-02-16T04:05:04.459Z,0.30
2023-02-16T04:07:33.351Z,0.50
2023-02-16T04:10:02.228Z,0.40
2023-02-16T04:12:39.139Z,0.37
2023-02-16T04:15:11.717Z,0.30
2023-02-16T04:17:46.326Z,0.30
2023-02-16T04:20:19.109Z,0.40
2023-02-16T04:22:47.496Z,0.30
2023-02-16T04:25:16.717Z,0.30
2023-02-16T04:27:47.830Z,0.40
2023-02-16T04:30:18.241Z,0.40
2023-02-16T04:32:46.469Z,0.37
2023-02-16T04:35:18.048Z,0.30
2023-02-16T04:37:46.865Z,0.30
2023-02-16T04:40:16.366Z,0.30
2023-02-16T04:42:45.694Z,0.30
2023-02-16T04:45:14.646Z,0.30
2023-02-16T04:47:43.144Z,0.30
2023-02-16T04:50:12.518Z,0.30
2023-02-16T04:52:42.500Z,0.40
2023-02-16T04:55:11.114Z,0.37
2023-02-16T04:57:39.694Z,0.30
2023-02-16T05:00:12.215Z,0.30
2023-02-16T05:02:40.279Z,0.30
2023-02-16T05:05:09.441Z,0.30
2023-02-16T05:07:37.556Z,0.40
2023-02-16T05:10:08.500Z,0.30
2023-02-16T05:12:54.249Z,0.20
2023-02-16T05:15:30.441Z,0.30
2023-02-16T05:17:58.816Z,0.30
2023-02-16T05:20:47.012Z,0.40
2023-02-16T05:23:39.209Z,0.50
2023-02-16T05:26:08.776Z,0.30
2023-02-16T05:28:38.842Z,0.30
2023-02-16T05:31:07.254Z,0.30
2023-02-16T05:33:41.679Z,0.30
2023-02-16T05:36:10.530Z,0.30
2023-02-16T05:38:38.464Z,0.30
2023-02-16T05:41:07.893Z,0.33
2023-02-16T05:43:35.830Z,0.30
2023-02-16T05:46:08.471Z,0.37
2023-02-16T05:48:37.468Z,0.30
2023-02-16T05:51:06.788Z,0.33
2023-02-16T05:53:34.718Z,0.30
2023-02-16T05:56:02.912Z,0.40
2023-02-16T05:58:43.463Z,0.30
2023-02-16T06:01:12.572Z,0.30
2023-02-16T06:03:41.642Z,0.33
2023-02-16T06:06:10.190Z,0.30
2023-02-16T06:08:43.996Z,0.30
2023-02-16T06:11:32.364Z,0.30
2023-02-16T06:14:09.487Z,0.30
2023-02-16T06:16:39.587Z,0.30
2023-02-16T06:19:08.051Z,0.40
2023-02-16T06:21:37.144Z,0.30
2023-02-16T06:24:05.909Z,0.30
2023-02-16T06:26:37.439Z,0.30
2023-02-16T06:29:07.624Z,0.33
2023-02-16T06:31:37.946Z,0.30
2023-02-16T06:34:08.051Z,0.40
2023-02-16T06:36:37.167Z,0.20
2023-02-16T06:39:05.310Z,0.30
2023-02-16T06:41:40.169Z,0.40
2023-02-16T06:44:13.513Z,0.40
2023-02-16T06:46:46.590Z,0.30
2023-02-16T06:49:19.479Z,0.30
2023-02-16T06:51:50.216Z,0.30
2023-02-16T06:54:20.541Z,0.40
2023-02-16T06:56:48.618Z,0.30
2023-02-16T06:59:18.099Z,0.23
2023-02-16T07:01:47.261Z,0.30
2023-02-16T07:04:20.028Z,0.30
2023-02-16T07:06:48.837Z,0.40
2023-02-16T07:09:19.371Z,0.30
2023-02-16T07:11:50.396Z,0.30
2023-02-16T07:14:23.074Z,0.20
2023-02-16T07:16:51.002Z,0.20
2023-02-16T07:19:19.246Z,0.30
2023-02-16T07:21:47.158Z,0.30
2023-02-16T07:24:15.225Z,0.30
2023-02-16T07:26:43.335Z,0.30
2023-02-16T07:29:11.326Z,0.30
2023-02-16T07:31:44.784Z,0.30
2023-02-16T07:34:14.506Z,0.30
2023-02-16T07:36:45.790Z,0.20
2023-02-16T07:39:14.635Z,0.20
2023-02-16T07:41:42.689Z,0.30
2023-02-16T07:44:10.598Z,0.23
2023-02-16T07:46:38.770Z,0.30
2023-02-16T07:49:08.350Z,0.20
2023-02-16T07:51:39.017Z,0.20
2023-02-16T07:54:08.135Z,0.30
2023-02-16T07:56:36.591Z,0.20
2023-02-16T07:59:07.278Z,0.20
2023-02-16T08:01:35.434Z,0.30
2023-02-16T08:04:04.438Z,0.20
2023-02-16T08:06:35.630Z,0.30
2023-02-16T08:09:03.717Z,0.30
2023-02-16T08:11:34.114Z,0.20
2023-02-16T08:14:03.059Z,0.30
2023-02-16T08:16:31.308Z,0.20
2023-02-16T08:19:01.156Z,0.20
2023-02-16T08:21:31.600Z,0.30
2023-02-16T08:24:02.990Z,0.30
2023-02-16T08:26:36.855Z,0.20
2023-02-16T08:29:06.537Z,0.20
2023-02-16T08:31:38.440Z,0.30
2023-02-16T08:34:07.472Z,0.20
2023-02-16T08:36:38.296Z,0.30
2023-02-16T08:39:10.316Z,0.23
2023-02-16T08:41:39.623Z,0.30
2023-02-16T08:44:09.086Z,0.30
2023-02-16T08:46:40.464Z,0.30
2023-02-16T08:49:10.189Z,0.20
2023-02-16T08:51:41.775Z,0.23
2023-02-16T08:54:17.091Z,0.30
2023-02-16T08:56:47.178Z,0.20
2023-02-16T08:59:16.243Z,0.30
2023-02-16T09:01:46.604Z,0.20
2023-02-16T09:04:16.430Z,0.20
2023-02-16T09:06:48.698Z,0.30
2023-02-16T09:09:19.098Z,0.20
2023-02-16T09:11:47.847Z,0.20
2023-02-16T09:14:18.798Z,0.20
2023-02-16T09:16:47.243Z,0.20
2023-02-16T09:19:20.523Z,0.20
2023-02-16T09:21:51.171Z,0.20
2023-02-16T09:24:22.033Z,0.20
2023-02-16T09:26:56.144Z,0.20
2023-02-16T09:29:24.342Z,0.20
2023-02-16T09:31:54.723Z,0.20
2023-02-16T09:34:27.959Z,0.20
2023-02-16T09:36:56.057Z,0.20
2023-02-16T09:39:25.700Z,0.30
2023-02-16T09:42:06.796Z,0.20
2023-02-16T09:44:43.618Z,0.20
2023-02-16T09:47:24.657Z,0.30
2023-02-16T09:49:56.315Z,0.30
2023-02-16T09:52:40.367Z,0.20
2023-02-16T09:55:14.792Z,0.20
2023-02-16T09:58:01.321Z,0.20
2023-02-16T10:00:44.564Z,0.20
2023-02-16T10:03:34.452Z,0.30
2023-02-16T10:06:22.305Z,0.23
2023-02-16T10:08:57.165Z,0.20
2023-02-16T10:11:42.598Z,0.20
2023-02-16T10:14:22.565Z,0.20
2023-02-16T10:16:56.838Z,0.20
2023-02-16T10:19:31.435Z,0.23
2023-02-16T10:22:07.081Z,0.30
2023-02-16T10:24:44.389Z,0.20
2023-02-16T10:27:16.816Z,0.20
2023-02-16T10:29:45.313Z,0.20
2023-02-16T10:32:26.138Z,0.20
2023-02-16T10:35:06.154Z,0.20
2023-02-16T10:37:48.618Z,0.20
2023-02-16T10:40:26.883Z,0.20
2023-02-16T10:43:05.471Z,0.20
2023-02-16T10:45:41.109Z,0.20
2023-02-16T10:48:11.124Z,0.20
2023-02-16T10:50:43.110Z,0.20
2023-02-16T10:53:17.080Z,0.20
2023-02-16T10:55:45.827Z,0.20
2023-02-16T10:58:22.489Z,0.20
2023-02-16T11:00:57.853Z,0.20
2023-02-16T11:03:30.826Z,0.20
2023-02-16T11:06:15.046Z,0.20
2023-02-16T11:08:49.894Z,0.20
2023-02-16T11:11:20.057Z,0.20
2023-02-16T11:13:58.119Z,0.20
2023-02-16T11:16:26.978Z,0.20
2023-02-16T11:18:59.676Z,0.20
2023-02-16T11:21:46.772Z,0.20
2023-02-16T11:24:26.189Z,0.20
2023-02-16T11:27:04.851Z,0.20
2023-02-16T11:29:35.621Z,0.20
2023-02-16T11:32:09.326Z,0.20
2023-02-16T11:34:41.366Z,0.20
2023-02-16T11:37:17.146Z,0.20
2023-02-16T11:39:51.069Z,0.20
2023-02-16T11:42:26.302Z,0.20
2023-02-16T11:45:00.285Z,0.20
2023-02-16T11:47:32.621Z,0.20
2023-02-16T11:50:19.383Z,0.20
2023-02-16T11:52:49.776Z,0.20
2023-02-16T11:55:27.091Z,0.20
2023-02-16T11:57:57.171Z,0.20
2023-02-16T12:00:28.013Z,0.20
2023-02-16T12:03:40.792Z,0.20
2023-02-16T12:06:21.425Z,0.20
2023-02-16T12:09:04.108Z,0.20
2023-02-16T12:11:44.094Z,0.20
2023-02-16T12:14:24.492Z,0.20
2023-02-16T12:17:01.482Z,0.20
2023-02-16T12:19:41.055Z,0.20
2023-02-16T12:22:23.316Z,0.20
2023-02-16T12:25:02.930Z,0.20
2023-02-16T12:27:38.711Z,0.20
2023-02-16T12:30:23.807Z,0.20
2023-02-16T12:33:08.160Z,0.20
2023-02-16T12:35:57.710Z,0.20
2023-02-16T12:38:39.762Z,0.20
2023-02-16T12:41:20.517Z,0.20
2023-02-16T12:43:51.545Z,0.20
2023-02-16T12:46:24.535Z,0.20
2023-02-16T12:48:58.907Z,0.20
2023-02-16T12:51:30.909Z,0.20
2023-02-16T12:54:03.020Z,0.20
2023-02-16T12:56:38.431Z,0.20
2023-02-16T12:59:21.160Z,0.20
2023-02-16T13:01:53.325Z,0.20
2023-02-16T13:04:32.696Z,0.20
2023-02-16T13:07:09.482Z,0.10
2023-02-16T13:09:41.594Z,0.20
2023-02-16T13:12:24.447Z,0.30
2023-02-16T13:15:03.936Z,0.20
2023-02-16T13:17:37.159Z,0.20
2023-02-16T13:20:16.761Z,0.20
2023-02-16T13:23:21.273Z,0.20
2023-02-16T13:26:24.306Z,0.20
2023-02-16T13:29:29.198Z,0.20
2023-02-16T13:35:08.372Z,0.30
2023-02-16T13:38:11.023Z,0.20
2023-02-16T13:41:25.042Z,0.20
2023-02-16T13:43:57.194Z,0.20
2023-02-16T13:46:30.909Z,0.20
2023-02-16T13:49:00.155Z,0.20
2023-02-16T13:51:40.213Z,0.23
2023-02-16T13:54:24.192Z,0.27
2023-02-16T13:56:52.284Z,0.20
2023-02-16T13:59:49.169Z,0.30
2023-02-16T14:03:01.036Z,0.30
2023-02-16T14:05:36.127Z,0.20
2023-02-16T14:08:21.264Z,0.30
2023-02-16T14:11:06.989Z,0.20
2023-02-16T14:13:46.701Z,0.30
2023-02-16T14:16:31.690Z,0.20
2023-02-16T14:19:03.057Z,0.20
2023-02-16T14:21:40.800Z,0.23
2023-02-16T14:24:23.118Z,0.27
2023-02-16T14:26:59.333Z,0.20
2023-02-16T14:29:36.326Z,0.30
2023-02-16T14:32:19.409Z,0.20
2023-02-16T14:34:54.078Z,0.30
2023-02-16T14:37:37.955Z,0.20
2023-02-16T14:40:14.534Z,0.20
2023-02-16T14:43:04.950Z,0.20
2023-02-16T14:46:02.119Z,0.20
2023-02-16T14:48:52.838Z,0.20
2023-02-16T14:51:51.076Z,0.20
2023-02-16T14:54:51.825Z,0.20
2023-02-16T14:57:24.040Z,0.20
2023-02-16T15:00:03.147Z,0.20
2023-02-16T15:02:33.873Z,0.20
2023-02-16T15:05:17.876Z,0.20
2023-02-16T15:07:50.528Z,0.30
2023-02-16T15:10:22.305Z,0.20
2023-02-16T15:12:50.759Z,0.20
2023-02-16T15:15:23.835Z,0.20
2023-02-16T15:17:55.253Z,0.20
2023-02-16T15:20:28.737Z,0.20
2023-02-16T15:23:01.250Z,0.20
2023-02-16T15:25:32.690Z,0.20
2023-02-16T15:28:04.341Z,0.20
2023-02-16T15:30:35.781Z,0.20
2023-02-16T15:33:07.082Z,0.20
2023-02-16T15:35:38.930Z,0.20
2023-02-16T15:38:19.624Z,0.20
2023-02-16T15:40:48.273Z,0.20
2023-02-16T15:43:27.997Z,0.20
2023-02-16T15:45:58.266Z,0.20
2023-02-16T15:48:30.488Z,0.20
2023-02-16T15:51:03.720Z,0.20
2023-02-16T15:53:38.796Z,0.20
2023-02-16T15:56:31.272Z,0.20
2023-02-16T15:59:02.027Z,0.20
2023-02-16T16:01:34.495Z,0.20
2023-02-16T16:04:06.519Z,0.20
2023-02-16T16:06:37.919Z,0.20
2023-02-16T16:09:08.678Z,0.20
2023-02-16T16:11:38.339Z,0.20
2023-02-16T16:14:08.146Z,0.20
2023-02-16T16:16:40.041Z,0.20
2023-02-16T16:19:15.963Z,0.20
2023-02-16T16:21:52.033Z,0.20
2023-02-16T16:24:34.154Z,0.20
2023-02-16T16:27:06.813Z,0.20
2023-02-16T16:29:45.412Z,0.20
2023-02-16T16:32:24.165Z,0.20
2023-02-16T16:34:56.687Z,0.20
2023-02-16T16:37:31.757Z,0.20
2023-02-16T16:40:04.317Z,0.20
2023-02-16T16:42:40.257Z,0.20
2023-02-16T16:45:36.350Z,0.10
2023-02-16T16:48:12.805Z,0.20
2023-02-16T16:50:42.606Z,0.20
2023-02-16T16:53:45.496Z,0.20
2023-02-16T16:56:15.161Z,0.20
2023-02-16T16:58:43.504Z,0.20
2023-02-16T17:01:13.766Z,0.20
2023-02-16T17:03:43.401Z,0.20
2023-02-16T17:06:14.215Z,0.20
2023-02-16T17:08:42.509Z,0.20
2023-02-16T17:11:14.791Z,0.20
2023-02-16T17:13:48.742Z,0.20
2023-02-16T17:16:22.167Z,0.20
2023-02-16T17:18:54.907Z,0.20
2023-02-16T17:21:24.187Z,0.20
2023-02-16T17:23:54.377Z,0.20
2023-02-16T17:26:24.719Z,0.20
2023-02-16T17:28:59.711Z,0.20
2023-02-16T17:31:29.090Z,0.20
2023-02-16T17:33:58.712Z,0.20
2023-02-16T17:36:28.167Z,0.20
2023-02-16T17:38:56.610Z,0.20
2023-02-16T17:41:26.952Z,0.20
2023-02-16T17:43:55.868Z,0.20
2023-02-16T17:46:24.796Z,0.30
2023-02-16T17:48:55.176Z,0.20
2023-02-16T17:51:26.845Z,0.20
2023-02-16T17:53:54.767Z,0.20
2023-02-16T17:56:27.010Z,0.20
2023-02-16T17:58:55.215Z,0.20
2023-02-16T18:01:24.488Z,0.20
2023-02-16T18:03:53.987Z,0.20
2023-02-16T18:06:28.167Z,0.20
2023-02-16T18:08:59.409Z,0.20
2023-02-16T18:11:27.438Z,0.20
2023-02-16T18:13:55.778Z,0.20
2023-02-16T18:16:28.609Z,0.20
2023-02-16T18:18:58.207Z,0.20
2023-02-16T18:21:27.730Z,0.20
2023-02-16T18:23:55.919Z,0.20
2023-02-16T18:26:23.924Z,0.20
2023-02-16T18:28:53.143Z,0.20
2023-02-16T18:31:21.444Z,0.20
2023-02-16T18:33:49.693Z,0.20
2023-02-16T18:36:17.804Z,0.20
2023-02-16T18:38:47.227Z,0.20
2023-02-16T18:41:15.355Z,0.20
2023-02-16T18:43:44.748Z,0.20
2023-02-16T18:46:14.159Z,0.20
2023-02-16T18:48:42.348Z,0.20
2023-02-16T18:51:11.636Z,0.20
2023-02-16T18:53:40.444Z,0.20
2023-02-16T18:56:13.232Z,0.20
2023-02-16T18:58:41.280Z,0.13
2023-02-16T19:01:14.435Z,0.20
2023-02-16T19:03:43.780Z,0.20
2023-02-16T19:06:11.852Z,0.20
2023-02-16T19:08:42.099Z,0.20
2023-02-16T19:11:11.415Z,0.20
2023-02-16T19:13:40.490Z,0.20
2023-02-16T19:16:08.863Z,0.20
2023-02-16T19:18:38.389Z,0.20
2023-02-16T19:21:20.801Z,0.20
2023-02-16T19:23:48.863Z,0.10
2023-02-16T19:26:18.924Z,0.20
2023-02-16T19:28:47.819Z,0.20
2023-02-16T19:31:21.189Z,0.17
2023-02-16T19:33:50.745Z,0.20
2023-02-16T19:36:22.870Z,0.20
2023-02-16T19:38:53.942Z,0.20
2023-02-16T19:41:26.530Z,0.20
2023-02-16T19:43:55.021Z,0.20
2023-02-16T19:46:24.106Z,0.20
2023-02-16T19:49:06.256Z,0.20
2023-02-16T19:51:40.874Z,0.20
2023-02-16T19:54:09.103Z,0.20
2023-02-16T19:56:40.627Z,0.20
2023-02-16T19:59:09.816Z,0.20
2023-02-16T20:01:37.999Z,0.20
2023-02-16T20:04:06.159Z,0.20
2023-02-16T20:06:37.339Z,0.20
2023-02-16T20:09:05.464Z,0.20
2023-02-16T20:11:33.864Z,0.20
2023-02-16T20:14:03.165Z,0.10
2023-02-16T20:16:31.307Z,0.20
2023-02-16T20:19:00.413Z,0.20
2023-02-16T20:21:30.292Z,0.20
2023-02-16T20:24:01.094Z,0.20
2023-02-16T20:26:34.191Z,0.20
2023-02-16T20:29:05.486Z,0.20
2023-02-16T20:31:40.313Z,0.10
2023-02-16T20:34:09.694Z,0.20
2023-02-16T20:36:38.729Z,0.20
2023-02-16T20:39:08.646Z,0.20
2023-02-16T20:41:37.215Z,0.20
2023-02-16T20:44:07.759Z,0.20
2023-02-16T20:46:46.911Z,0.20
2023-02-16T20:49:16.498Z,0.20
2023-02-16T20:51:46.615Z,0.10
2023-02-16T20:54:14.816Z,0.20
2023-02-16T20:56:45.166Z,0.20
2023-02-16T20:59:14.798Z,0.20
2023-02-16T21:01:46.494Z,0.20
2023-02-16T21:04:17.031Z,0.20
2023-02-16T21:06:45.764Z,0.20
2023-02-16T21:09:13.985Z,0.20
2023-02-16T21:11:42.931Z,0.20
2023-02-16T21:14:14.507Z,0.20
2023-02-16T21:16:43.108Z,0.20
2023-02-16T21:19:22.159Z,0.20
2023-02-16T21:21:52.023Z,0.20
2023-02-16T21:24:21.330Z,0.20
2023-02-16T21:26:50.612Z,0.20
2023-02-16T21:29:20.342Z,0.20
2023-02-16T21:31:48.985Z,0.37
2023-02-16T21:34:17.050Z,0.20
2023-02-16T21:36:45.123Z,0.30
2023-02-16T21:39:13.527Z,0.30
2023-02-16T21:41:43.114Z,0.30
2023-02-16T21:44:14.087Z,0.20
2023-02-16T21:46:47.570Z,0.20
2023-02-16T21:49:16.521Z,0.20
2023-02-16T21:51:46.240Z,0.57
2023-02-16T21:54:16.360Z,0.20
2023-02-16T21:56:44.925Z,0.20
2023-02-16T21:59:15.029Z,0.40
2023-02-16T22:01:47.912Z,0.30
2023-02-16T22:04:18.208Z,0.40
2023-02-16T22:06:48.577Z,0.20
2023-02-16T22:09:19.747Z,0.20
2023-02-16T22:11:48.836Z,0.30
2023-02-16T22:14:33.251Z,0.30
2023-02-16T22:17:04.413Z,0.20
2023-02-16T22:19:32.276Z,0.20
2023-02-16T22:22:00.650Z,0.20
2023-02-16T22:24:28.801Z,0.27
2023-02-16T22:26:57.010Z,0.20
2023-02-16T22:29:24.972Z,0.20
2023-02-16T22:31:53.143Z,0.20
2023-02-16T22:34:23.266Z,0.30
2023-02-16T22:36:51.575Z,0.20
2023-02-16T22:39:20.436Z,0.20
2023-02-16T22:41:50.935Z,0.30
2023-02-16T22:44:19.066Z,0.20
2023-02-16T22:46:47.339Z,0.20
2023-02-16T22:49:16.314Z,0.10
2023-02-16T22:51:47.693Z,0.10
2023-02-16T22:54:16.332Z,0.20
2023-02-16T22:56:46.454Z,0.20
2023-02-16T22:59:14.728Z,0.20
2023-02-16T23:01:42.981Z,0.20
2023-02-16T23:04:15.429Z,0.20
2023-02-16T23:06:46.081Z,0.20
2023-02-16T23:09:16.329Z,0.20
2023-02-16T23:11:44.681Z,0.20
2023-02-16T23:14:18.602Z,0.20
2023-02-16T23:16:48.312Z,0.20
2023-02-16T23:19:18.080Z,0.10
2023-02-16T23:21:51.629Z,0.20
2023-02-16T23:24:22.250Z,0.27
2023-02-16T23:26:50.526Z,0.30
2023-02-16T23:29:18.885Z,0.20
2023-02-16T23:31:48.191Z,0.27
2023-02-16T23:34:19.596Z,0.30
2023-02-16T23:36:50.147Z,0.20
2023-02-16T23:39:19.754Z,0.20
2023-02-16T23:41:48.927Z,0.30
2023-02-16T23:44:23.590Z,0.20
2023-02-16T23:46:51.664Z,0.20
2023-02-16T23:49:29.715Z,0.20
2023-02-16T23:51:59.120Z,0.47
2023-02-16T23:54:27.590Z,0.80
2023-02-16T23:56:56.572Z,0.33
2023-02-16T23:59:24.544Z,0.40
